Aérodrome :
LOGIN :

S'inscrire | Disclaimer

   EN    FR    IT 

 










Légende :    VFR   VFR Marginal   IFR   IFR Intensif   IFR Très Intensif
Visi : 
Plafond : 
>= 8 km
>= 3000ft
5 à 8 km
1000 à 3000 ft
1500m à 5 km
500 à 1000 ft
800 à 1500m
200 à 500 ft
< 800m
< 200 ft
Symboles :   Orages  Brouillard  Fortes neiges  Fortes précipitations  Vent > 20 kt
SIGMETs :   Divers  Orages  Givrage  Turbulence  Onde Orograph.  Cendres Volcan.







- Altitude de l'aérodrome : 18 ft
- Code IATA : AJA
- Voir les cartes d'approche


LFKJ - Ajaccio

DERNIER METAR :
  • 251130Z AUTO 24010KT 9999 FEW035/// OVC120/// ///CB 24/19 Q1014 TEMPO 4000 TSRA

METARs EXPIRÉS :
  • 251100Z AUTO 23011KT 9999 ///TCU 24/19 Q1014 TEMPO 4000 TSRA SCT020CB BKN040
  • 251030Z AUTO 23010KT 9999 ///TCU 26/19 Q1014 TEMPO 4000 TSRA SCT020CB BKN040
  • 251000Z AUTO 24010KT CAVOK 25/19 Q1014 TEMPO 4000 TSRA SCT020CB BKN040
  • 250930Z AUTO 24009KT CAVOK 25/19 Q1014 TEMPO 4000 TSRA SCT020CB BKN040
  • 250900Z AUTO 23007KT CAVOK 25/18 Q1014 BECMG FEW030CB

TAF TAF LFKJ
Valide du 25 à 09h jusqu'au 26 à 09h UTC


250800Z 2509/2609 VRB05KT CAVOK
BECMG 2509/2510 FEW030CB
TEMPO 2511/2519 TS SCT040CB
PROB40
TEMPO 2511/2518 4000 TSRA SCT020CB BKN040
BECMG 2519/2521 CAVOK
ATIS : +33 4 95 23 59 85
Pas de NOTAMs connus pour ce terrain.



MET'MAP, la Météo Aéronautique d'un coup d'oeil ! - Copyright ORBIFLY Décembre 2007 - Disclaimer

ORBIFLY MET'MAP TEAM :

Programmation & Développement : Alexandra Zaïnal
Conception & Développement : Baudouin d'Aumeries
Co-Programmation & Développement : Marc-Olivier Méhu
Soutien technique & logistique : Manuel Goepfert

Contact : metmap@orbifly.com




SOURCES & CREDITS :

   NOAA